Time;durP1;ratioP1;P1;durP2;ratioP2;P2;SDS_P1;SDS_P2;PMS_P1;PMS_P2;Temp;Humidity;BMP_temperature;BMP_pressure;BME280_temperature;BME280_humidity;BME280_pressure;Samples;Min_cycle;Max_cycle;Signal;HPM_P1;HPM_P2
2021/05/23 00:02:12;;;;;;;24.25;14.95;;;;;;;;;;5089029;28;20016;-72
2021/05/23 00:04:38;;;;;;;23.77;15.52;;;;;;;;;;5081471;28;20051;-71
2021/05/23 00:07:05;;;;;;;25.60;16.17;;;;;;;;;;5060730;28;20065;-71
2021/05/23 00:09:31;;;;;;;28.75;15.82;;;;;;;;;;5077620;28;20052;-72
2021/05/23 00:11:57;;;;;;;26.52;15.35;;;;;;;;;;5082149;28;20063;-72
2021/05/23 00:14:23;;;;;;;22.45;12.68;;;;;;;;;;5079355;28;20035;-71
2021/05/23 00:16:49;;;;;;;24.17;11.68;;;;;;;;;;5062203;28;20411;-71
2021/05/23 00:19:15;;;;;;;18.90;10.20;;;;;;;;;;5062115;28;20027;-72
2021/05/23 00:21:42;;;;;;;14.00;8.48;;;;;;;;;;5061771;28;20048;-72
2021/05/23 00:24:09;;;;;;;20.13;8.85;;;;;;;;;;5077612;28;20024;-72
2021/05/23 00:26:35;;;;;;;23.73;10.20;;;;;;;;;;5081886;28;20031;-71
2021/05/23 00:29:01;;;;;;;21.52;11.25;;;;;;;;;;5082172;28;20032;-71
2021/05/23 00:31:28;;;;;;;26.73;12.25;;;;;;;;;;5069938;28;20142;-71
2021/05/23 00:33:54;;;;;;;25.98;12.68;;;;;;;;;;5086552;28;20438;-70
2021/05/23 00:36:20;;;;;;;25.25;13.38;;;;;;;;;;5055960;28;20666;-71
2021/05/23 00:38:46;;;;;;;32.67;15.80;;;;;;;;;;5069407;28;20077;-72
2021/05/23 00:41:12;;;;;;;34.35;16.58;;;;;;;;;;5063813;28;20531;-72
2021/05/23 00:43:38;;;;;;;39.70;19.40;;;;;;;;;;5086241;28;20020;-72
2021/05/23 00:46:05;;;;;;;37.58;20.60;;;;;;;;;;5091925;28;20021;-72
2021/05/23 00:48:31;;;;;;;37.35;19.75;;;;;;;;;;5064415;28;20174;-69
2021/05/23 00:50:57;;;;;;;43.83;23.10;;;;;;;;;;5088593;28;20507;-72
2021/05/23 00:53:23;;;;;;;42.53;22.80;;;;;;;;;;5090160;28;20052;-72
2021/05/23 00:55:49;;;;;;;46.30;24.38;;;;;;;;;;5086050;28;20085;-72
2021/05/23 00:58:16;;;;;;;42.83;23.85;;;;;;;;;;5090069;28;20421;-71
2021/05/23 01:00:43;;;;;;;41.78;24.27;;;;;;;;;;5071040;28;20028;-71
2021/05/23 01:03:36;;;;;;;37.90;22.23;;;;;;;;;;5085543;28;20020;-73
2021/05/23 01:06:04;;;;;;;38.63;21.08;;;;;;;;;;5032236;28;20576;-71
2021/05/23 01:08:30;;;;;;;43.10;21.92;;;;;;;;;;5085355;28;20032;-71
2021/05/23 01:11:15;;;;;;;44.38;20.80;;;;;;;;;;5079825;28;20074;-70
2021/05/23 01:13:59;;;;;;;40.50;20.38;;;;;;;;;;5080195;28;20128;-71
2021/05/23 01:16:42;;;;;;;40.95;20.33;;;;;;;;;;5071917;28;20032;-70
2021/05/23 01:19:13;;;;;;;37.42;20.02;;;;;;;;;;5054590;28;20068;-72
2021/05/23 01:21:41;;;;;;;39.95;21.27;;;;;;;;;;5087234;28;20514;-71
2021/05/23 01:24:11;;;;;;;34.65;20.15;;;;;;;;;;5066937;28;20028;-71
2021/05/23 01:26:38;;;;;;;43.08;20.33;;;;;;;;;;5072944;28;20031;-70
2021/05/23 01:29:08;;;;;;;51.22;21.15;;;;;;;;;;5087300;28;20036;-71
2021/05/23 01:31:35;;;;;;;32.42;17.95;;;;;;;;;;5070370;28;20024;-71
2021/05/23 01:34:02;;;;;;;40.15;18.90;;;;;;;;;;5088145;28;20040;-70
2021/05/23 01:36:30;;;;;;;34.10;18.30;;;;;;;;;;5075986;28;20024;-71
2021/05/23 01:38:57;;;;;;;37.83;18.65;;;;;;;;;;5081539;28;20032;-70
2021/05/23 01:41:23;;;;;;;39.92;18.95;;;;;;;;;;5064322;28;20021;-70
2021/05/23 01:43:50;;;;;;;35.50;18.98;;;;;;;;;;5087590;28;20024;-70
2021/05/23 01:46:17;;;;;;;34.30;17.42;;;;;;;;;;5089696;28;20024;-71
2021/05/23 01:48:43;;;;;;;30.45;16.00;;;;;;;;;;5085172;28;20633;-69
2021/05/23 01:51:09;;;;;;;41.08;17.20;;;;;;;;;;5070290;28;20028;-72
2021/05/23 01:53:36;;;;;;;33.47;16.48;;;;;;;;;;5083826;28;20056;-71
2021/05/23 01:56:03;;;;;;;30.25;14.15;;;;;;;;;;5059879;28;20045;-70
2021/05/23 01:58:29;;;;;;;30.38;14.70;;;;;;;;;;5075103;28;20103;-69
2021/05/23 02:00:55;;;;;;;32.97;13.63;;;;;;;;;;5089832;28;20101;-71
2021/05/23 02:03:22;;;;;;;41.33;14.93;;;;;;;;;;5070288;28;20028;-71
2021/05/23 02:05:49;;;;;;;31.42;14.13;;;;;;;;;;5088377;28;20119;-71
2021/05/23 02:08:16;;;;;;;31.85;14.25;;;;;;;;;;5071370;28;20028;-71
2021/05/23 02:10:42;;;;;;;37.42;13.52;;;;;;;;;;5080360;28;20039;-71
2021/05/23 02:13:09;;;;;;;35.63;13.35;;;;;;;;;;5087547;28;20035;-71
2021/05/23 02:15:36;;;;;;;27.20;11.90;;;;;;;;;;5084984;28;20028;-72
2021/05/23 02:18:03;;;;;;;26.23;11.02;;;;;;;;;;5077077;28;20020;-72
2021/05/23 02:20:30;;;;;;;34.03;11.68;;;;;;;;;;5070121;28;20063;-71
2021/05/23 02:22:58;;;;;;;28.27;11.02;;;;;;;;;;5079938;28;20069;-71
2021/05/23 02:25:25;;;;;;;20.38;8.90;;;;;;;;;;5062375;28;20024;-70
2021/05/23 02:27:56;;;;;;;23.23;9.77;;;;;;;;;;5094472;28;20028;-71
2021/05/23 02:30:22;;;;;;;21.95;9.77;;;;;;;;;;5091983;28;20138;-71
2021/05/23 02:32:48;;;;;;;31.65;10.02;;;;;;;;;;5085047;28;20021;-71
2021/05/23 02:35:16;;;;;;;31.30;10.63;;;;;;;;;;5089613;28;20028;-70
2021/05/23 02:37:42;;;;;;;33.28;9.77;;;;;;;;;;5076285;28;20024;-71
2021/05/23 02:40:09;;;;;;;26.92;10.32;;;;;;;;;;5083286;28;20028;-71
2021/05/23 02:42:36;;;;;;;35.92;11.68;;;;;;;;;;5091026;28;20024;-70
2021/05/23 02:45:02;;;;;;;30.63;11.55;;;;;;;;;;5066599;28;20104;-71
2021/05/23 02:47:28;;;;;;;23.63;10.05;;;;;;;;;;5088345;28;20494;-71
2021/05/23 02:49:55;;;;;;;31.65;12.40;;;;;;;;;;5069406;28;20214;-70
2021/05/23 02:52:21;;;;;;;37.28;12.40;;;;;;;;;;5082907;28;20081;-73
2021/05/23 02:54:47;;;;;;;31.52;11.68;;;;;;;;;;5088027;28;20024;-70
2021/05/23 02:57:13;;;;;;;34.92;11.10;;;;;;;;;;5093039;28;20082;-71
2021/05/23 02:59:39;;;;;;;29.52;13.13;;;;;;;;;;5089668;28;20028;-71
2021/05/23 03:02:05;;;;;;;31.92;11.50;;;;;;;;;;5071850;28;20043;-72
2021/05/23 03:04:31;;;;;;;31.30;12.32;;;;;;;;;;5087435;28;20054;-71
2021/05/23 03:06:57;;;;;;;30.88;11.40;;;;;;;;;;5074473;28;20121;-72
2021/05/23 03:09:23;;;;;;;24.80;10.80;;;;;;;;;;5091174;28;20028;-73
2021/05/23 03:11:49;;;;;;;32.30;9.88;;;;;;;;;;5089793;28;20093;-72
2021/05/23 03:14:15;;;;;;;26.50;9.80;;;;;;;;;;5061793;28;20035;-70
2021/05/23 03:16:42;;;;;;;29.58;9.18;;;;;;;;;;5090985;28;20024;-70
2021/05/23 03:19:08;;;;;;;28.45;9.90;;;;;;;;;;5092875;28;20093;-72
2021/05/23 03:21:35;;;;;;;23.52;9.65;;;;;;;;;;5063327;28;20028;-72
2021/05/23 03:24:01;;;;;;;31.67;10.70;;;;;;;;;;5088317;28;20024;-71
2021/05/23 03:26:27;;;;;;;26.98;9.48;;;;;;;;;;5088049;28;20031;-73
2021/05/23 03:28:53;;;;;;;35.72;9.30;;;;;;;;;;5085112;28;20020;-72
2021/05/23 03:31:19;;;;;;;30.45;8.90;;;;;;;;;;5092060;28;20031;-72
2021/05/23 03:33:45;;;;;;;29.15;8.13;;;;;;;;;;5072027;28;20046;-72
2021/05/23 03:36:11;;;;;;;22.55;7.78;;;;;;;;;;5076388;28;20033;-71
2021/05/23 03:38:37;;;;;;;22.92;7.97;;;;;;;;;;5086067;28;20020;-72
2021/05/23 03:41:03;;;;;;;26.08;7.55;;;;;;;;;;5088925;28;20036;-72
2021/05/23 03:43:30;;;;;;;29.65;7.72;;;;;;;;;;5072949;28;20070;-73
2021/05/23 03:45:56;;;;;;;27.27;8.60;;;;;;;;;;5064284;28;20025;-72
2021/05/23 03:48:22;;;;;;;23.83;7.07;;;;;;;;;;5089776;28;20025;-71
2021/05/23 03:50:48;;;;;;;24.77;6.47;;;;;;;;;;5070320;28;20047;-71
2021/05/23 03:53:14;;;;;;;41.53;7.80;;;;;;;;;;5072513;28;20565;-76
2021/05/23 03:55:40;;;;;;;25.65;6.97;;;;;;;;;;5082654;28;20028;-72
2021/05/23 03:58:07;;;;;;;26.00;6.53;;;;;;;;;;5092696;28;20024;-72
2021/05/23 04:00:35;;;;;;;31.83;6.25;;;;;;;;;;5076967;28;20083;-72
2021/05/23 04:03:01;;;;;;;21.98;6.22;;;;;;;;;;5088064;28;20135;-71
2021/05/23 04:05:28;;;;;;;22.42;5.35;;;;;;;;;;5082229;28;20027;-72
2021/05/23 04:07:55;;;;;;;24.05;9.50;;;;;;;;;;5089509;28;20036;-72
2021/05/23 04:10:25;;;;;;;24.58;6.18;;;;;;;;;;5084204;28;20028;-71
2021/05/23 04:12:52;;;;;;;22.38;8.65;;;;;;;;;;5090035;28;20020;-72
2021/05/23 04:15:19;;;;;;;18.75;6.35;;;;;;;;;;5080407;28;20070;-72
2021/05/23 04:17:45;;;;;;;19.77;6.22;;;;;;;;;;5081492;28;20017;-71
2021/05/23 04:20:13;;;;;;;18.30;5.13;;;;;;;;;;5083495;28;20123;-73
2021/05/23 04:22:40;;;;;;;31.42;5.88;;;;;;;;;;5088169;28;20097;-72
2021/05/23 04:25:08;;;;;;;17.58;5.30;;;;;;;;;;5085945;28;20032;-72
2021/05/23 04:27:35;;;;;;;22.48;5.40;;;;;;;;;;5083677;28;20058;-70
2021/05/23 04:30:01;;;;;;;24.15;4.53;;;;;;;;;;5085072;28;20070;-72
2021/05/23 04:32:27;;;;;;;18.95;5.22;;;;;;;;;;5069854;28;20024;-72
2021/05/23 04:34:53;;;;;;;18.92;4.93;;;;;;;;;;5062968;28;20025;-72
2021/05/23 04:37:19;;;;;;;21.60;5.00;;;;;;;;;;5085117;28;20020;-71
2021/05/23 04:39:46;;;;;;;18.88;5.07;;;;;;;;;;5089661;28;20027;-72
2021/05/23 04:42:12;;;;;;;23.67;5.25;;;;;;;;;;5086510;28;20028;-71
2021/05/23 04:44:38;;;;;;;21.77;5.45;;;;;;;;;;5073594;28;20082;-71
2021/05/23 04:47:04;;;;;;;17.35;4.82;;;;;;;;;;5081789;28;20021;-71
2021/05/23 04:49:30;;;;;;;21.02;5.13;;;;;;;;;;5079202;28;20107;-72
2021/05/23 04:51:56;;;;;;;14.15;4.45;;;;;;;;;;5088547;28;20028;-71
2021/05/23 04:54:23;;;;;;;24.48;6.22;;;;;;;;;;5086634;28;20032;-72
2021/05/23 04:56:49;;;;;;;18.77;4.47;;;;;;;;;;5087145;28;20020;-72
2021/05/23 04:59:15;;;;;;;20.00;4.35;;;;;;;;;;5091020;28;20385;-72
2021/05/23 05:01:41;;;;;;;23.85;5.18;;;;;;;;;;5070331;28;20028;-72
2021/05/23 05:04:07;;;;;;;17.30;5.28;;;;;;;;;;5077319;28;20035;-72
2021/05/23 05:06:33;;;;;;;17.60;4.93;;;;;;;;;;5076227;28;20020;-71
2021/05/23 05:08:59;;;;;;;23.70;5.05;;;;;;;;;;5090457;28;20020;-72
2021/05/23 05:11:25;;;;;;;22.23;5.82;;;;;;;;;;5090606;28;20031;-73
2021/05/23 05:13:51;;;;;;;20.55;4.97;;;;;;;;;;5084116;28;20024;-72
2021/05/23 05:16:17;;;;;;;17.35;6.60;;;;;;;;;;5084126;28;20111;-73
2021/05/23 05:18:43;;;;;;;30.77;6.47;;;;;;;;;;5090394;28;20023;-72
2021/05/23 05:21:09;;;;;;;20.23;5.68;;;;;;;;;;5089546;28;20086;-71
2021/05/23 05:23:35;;;;;;;17.25;4.68;;;;;;;;;;5073638;28;20017;-72
2021/05/23 05:26:03;;;;;;;26.13;5.95;;;;;;;;;;5080634;28;20020;-72
2021/05/23 05:28:29;;;;;;;18.17;4.97;;;;;;;;;;5079836;28;20537;-71
2021/05/23 05:30:55;;;;;;;20.58;5.93;;;;;;;;;;5069534;28;20035;-71
2021/05/23 05:33:21;;;;;;;20.17;6.78;;;;;;;;;;5066340;28;20534;-71
2021/05/23 05:35:47;;;;;;;13.95;4.85;;;;;;;;;;5070467;28;20035;-71
2021/05/23 05:38:14;;;;;;;12.13;4.50;;;;;;;;;;5086051;28;20101;-72
2021/05/23 05:40:40;;;;;;;10.05;4.75;;;;;;;;;;5090043;28;20032;-73
2021/05/23 05:43:06;;;;;;;20.65;4.40;;;;;;;;;;5070234;28;20055;-72
2021/05/23 05:45:32;;;;;;;18.77;3.30;;;;;;;;;;5057286;28;20020;-71
2021/05/23 05:47:58;;;;;;;15.55;3.65;;;;;;;;;;5082190;28;20019;-66
2021/05/23 05:50:24;;;;;;;13.77;3.47;;;;;;;;;;5090104;28;20134;-70
2021/05/23 05:52:50;;;;;;;22.92;4.63;;;;;;;;;;5077665;28;20021;-68
2021/05/23 05:55:16;;;;;;;13.35;3.13;;;;;;;;;;5081164;28;20047;-70
2021/05/23 05:57:42;;;;;;;17.88;3.45;;;;;;;;;;5081744;28;20028;-68
2021/05/23 06:00:08;;;;;;;14.20;3.58;;;;;;;;;;5079843;28;20024;-69
2021/05/23 06:02:35;;;;;;;14.90;4.03;;;;;;;;;;5083174;28;20058;-67
2021/05/23 06:05:01;;;;;;;13.43;4.68;;;;;;;;;;5088799;28;20031;-68
2021/05/23 06:07:27;;;;;;;10.23;3.15;;;;;;;;;;5055521;28;20037;-67
2021/05/23 06:09:53;;;;;;;15.35;3.65;;;;;;;;;;5069510;28;20029;-67
2021/05/23 06:12:19;;;;;;;15.00;3.97;;;;;;;;;;5052676;28;20029;-68
2021/05/23 06:14:46;;;;;;;17.13;3.88;;;;;;;;;;5060123;28;20024;-67
2021/05/23 06:17:12;;;;;;;16.48;3.97;;;;;;;;;;5070224;28;20086;-68
2021/05/23 06:19:38;;;;;;;23.13;4.43;;;;;;;;;;5066819;28;20122;-69
2021/05/23 06:22:04;;;;;;;14.60;3.22;;;;;;;;;;5067690;28;20032;-68
2021/05/23 06:24:30;;;;;;;17.17;3.05;;;;;;;;;;5067962;28;20043;-68
2021/05/23 06:26:56;;;;;;;21.48;4.15;;;;;;;;;;5063027;28;20028;-69
2021/05/23 06:29:22;;;;;;;14.23;3.00;;;;;;;;;;5068834;28;20028;-68
2021/05/23 06:31:48;;;;;;;21.08;3.85;;;;;;;;;;5068969;28;20048;-68
2021/05/23 06:34:14;;;;;;;15.45;2.90;;;;;;;;;;5067505;28;20043;-68
2021/05/23 06:36:40;;;;;;;14.30;3.03;;;;;;;;;;5069278;28;20016;-69
2021/05/23 06:39:07;;;;;;;13.80;2.97;;;;;;;;;;5066832;28;20033;-68
2021/05/23 06:41:33;;;;;;;19.40;2.95;;;;;;;;;;5067224;28;20028;-70
2021/05/23 06:43:59;;;;;;;13.68;2.75;;;;;;;;;;5068188;28;20025;-68
2021/05/23 06:46:25;;;;;;;11.40;2.58;;;;;;;;;;5060366;28;20025;-67
2021/05/23 06:48:51;;;;;;;13.27;2.75;;;;;;;;;;5069252;28;20024;-68
2021/05/23 06:51:17;;;;;;;11.07;2.90;;;;;;;;;;5062809;28;20025;-68
2021/05/23 06:53:43;;;;;;;12.90;3.13;;;;;;;;;;5065699;28;20044;-69
2021/05/23 06:56:09;;;;;;;11.77;2.85;;;;;;;;;;5059507;28;20158;-69
2021/05/23 06:58:36;;;;;;;24.35;3.67;;;;;;;;;;5069606;28;20033;-68
2021/05/23 07:01:03;;;;;;;14.80;4.03;;;;;;;;;;5064027;28;20515;-69
2021/05/23 07:03:29;;;;;;;12.68;2.50;;;;;;;;;;5061930;28;20326;-72
2021/05/23 07:05:55;;;;;;;12.50;2.65;;;;;;;;;;5069938;28;20029;-72
2021/05/23 07:08:21;;;;;;;21.05;3.30;;;;;;;;;;5046924;28;20140;-72
2021/05/23 07:10:47;;;;;;;14.13;3.05;;;;;;;;;;5057726;28;20033;-70
2021/05/23 07:13:13;;;;;;;14.55;3.40;;;;;;;;;;5051400;28;20037;-72
2021/05/23 07:15:39;;;;;;;9.75;2.72;;;;;;;;;;5048376;28;20022;-71
2021/05/23 07:18:06;;;;;;;19.75;4.22;;;;;;;;;;5041135;28;20034;-72
2021/05/23 07:20:32;;;;;;;13.18;4.53;;;;;;;;;;5042242;28;20045;-72
2021/05/23 07:22:58;;;;;;;13.60;2.95;;;;;;;;;;5052583;28;20699;-71
2021/05/23 07:25:24;;;;;;;15.02;2.72;;;;;;;;;;5051725;28;20561;-71
2021/05/23 07:27:50;;;;;;;16.55;3.63;;;;;;;;;;5049236;28;20044;-72
2021/05/23 07:30:16;;;;;;;19.45;2.63;;;;;;;;;;5048336;28;20111;-70
2021/05/23 07:32:42;;;;;;;17.50;3.90;;;;;;;;;;5047228;28;20166;-71
2021/05/23 07:35:10;;;;;;;18.77;3.92;;;;;;;;;;5050576;28;20929;-71
2021/05/23 07:37:36;;;;;;;18.50;3.35;;;;;;;;;;5049773;28;20025;-72
2021/05/23 07:40:03;;;;;;;16.88;2.97;;;;;;;;;;5045120;28;20033;-72
2021/05/23 07:42:30;;;;;;;12.88;2.60;;;;;;;;;;5046464;28;20025;-71
2021/05/23 07:44:56;;;;;;;18.40;3.40;;;;;;;;;;5040905;28;20017;-72
2021/05/23 07:47:22;;;;;;;10.35;2.70;;;;;;;;;;5050989;28;20106;-70
2021/05/23 07:49:48;;;;;;;9.48;2.60;;;;;;;;;;5046547;28;20382;-71
2021/05/23 07:52:14;;;;;;;11.70;2.70;;;;;;;;;;5051632;28;20453;-71
2021/05/23 07:54:41;;;;;;;12.63;2.40;;;;;;;;;;5063376;28;20078;-72
2021/05/23 07:57:07;;;;;;;17.52;2.60;;;;;;;;;;5050323;28;20444;-72
2021/05/23 07:59:33;;;;;;;11.88;2.47;;;;;;;;;;5048710;28;20032;-70
2021/05/23 08:02:00;;;;;;;11.20;2.13;;;;;;;;;;5046500;28;20028;-70
2021/05/23 08:04:26;;;;;;;8.10;1.70;;;;;;;;;;5039541;28;20551;-72
2021/05/23 08:06:52;;;;;;;32.75;2.92;;;;;;;;;;5038354;28;20045;-71
2021/05/23 08:09:19;;;;;;;17.13;1.92;;;;;;;;;;5048744;28;20032;-72
2021/05/23 08:11:46;;;;;;;17.42;2.13;;;;;;;;;;5042628;28;20052;-70
2021/05/23 08:14:12;;;;;;;14.63;1.98;;;;;;;;;;5045182;28;20095;-70
2021/05/23 08:16:38;;;;;;;12.05;2.17;;;;;;;;;;5043132;28;20047;-72
2021/05/23 08:19:05;;;;;;;10.05;2.17;;;;;;;;;;5047665;28;20033;-70
2021/05/23 08:21:31;;;;;;;7.72;2.08;;;;;;;;;;5046621;28;20086;-71
2021/05/23 08:23:58;;;;;;;7.78;1.77;;;;;;;;;;5035520;28;20043;-70
2021/05/23 08:26:24;;;;;;;7.95;1.70;;;;;;;;;;5044729;28;20025;-69
2021/05/23 08:28:50;;;;;;;9.40;1.60;;;;;;;;;;5040900;28;20040;-73
2021/05/23 08:31:17;;;;;;;11.43;1.70;;;;;;;;;;5043834;28;20029;-74
2021/05/23 08:33:43;;;;;;;5.30;1.48;;;;;;;;;;5040178;28;20025;-73
2021/05/23 08:36:09;;;;;;;9.52;1.65;;;;;;;;;;5046047;28;20086;-68
2021/05/23 08:38:36;;;;;;;5.05;1.30;;;;;;;;;;5049243;28;20013;-72
2021/05/23 08:41:03;;;;;;;6.25;1.98;;;;;;;;;;5045930;28;20111;-72
2021/05/23 08:43:29;;;;;;;7.15;2.08;;;;;;;;;;5042944;28;20025;-70
2021/05/23 08:45:55;;;;;;;6.25;1.55;;;;;;;;;;5043708;28;20622;-71
2021/05/23 08:48:22;;;;;;;5.45;1.27;;;;;;;;;;5045359;28;20017;-72
2021/05/23 08:50:48;;;;;;;5.47;0.95;;;;;;;;;;5043634;28;20037;-70
2021/05/23 08:53:15;;;;;;;9.32;1.25;;;;;;;;;;5043608;28;20048;-71
2021/05/23 08:55:43;;;;;;;6.72;0.98;;;;;;;;;;5044105;28;20025;-75
2021/05/23 08:58:09;;;;;;;8.63;1.38;;;;;;;;;;5043706;28;20068;-73
2021/05/23 09:00:36;;;;;;;5.50;1.40;;;;;;;;;;5041514;28;20029;-73
2021/05/23 09:03:02;;;;;;;9.50;1.85;;;;;;;;;;5041931;28;20048;-70
2021/05/23 09:05:29;;;;;;;8.27;1.27;;;;;;;;;;5038518;28;20017;-73
2021/05/23 09:07:55;;;;;;;5.90;1.48;;;;;;;;;;5073072;28;20040;-72
2021/05/23 09:10:24;;;;;;;8.32;1.60;;;;;;;;;;5082435;28;20381;-73
2021/05/23 09:12:50;;;;;;;7.25;1.35;;;;;;;;;;5085753;28;20032;-72
2021/05/23 09:15:17;;;;;;;10.07;1.40;;;;;;;;;;5058627;28;20525;-73
2021/05/23 09:17:43;;;;;;;6.80;1.25;;;;;;;;;;5082860;28;20036;-73
2021/05/23 09:20:16;;;;;;;7.65;1.83;;;;;;;;;;5085845;28;20043;-72
2021/05/23 09:22:42;;;;;;;6.15;1.38;;;;;;;;;;5079882;28;20035;-69
2021/05/23 09:25:10;;;;;;;6.13;1.33;;;;;;;;;;5079482;28;20117;-72
2021/05/23 09:27:43;;;;;;;5.18;1.52;;;;;;;;;;5085382;28;20502;-73
2021/05/23 09:30:12;;;;;;;4.38;1.17;;;;;;;;;;5079317;28;20028;-69
2021/05/23 09:32:40;;;;;;;6.78;1.13;;;;;;;;;;5082935;28;20062;-72
2021/05/23 09:35:08;;;;;;;6.35;1.65;;;;;;;;;;5084837;28;20471;-71
2021/05/23 09:37:34;;;;;;;12.85;1.52;;;;;;;;;;5087491;28;20079;-71
2021/05/23 09:40:01;;;;;;;5.63;1.42;;;;;;;;;;5082539;28;20058;-70
2021/05/23 09:42:27;;;;;;;7.07;2.00;;;;;;;;;;5071189;28;20036;-71
2021/05/23 09:44:58;;;;;;;7.07;2.05;;;;;;;;;;5066031;28;20059;-72
2021/05/23 09:47:26;;;;;;;7.03;1.52;;;;;;;;;;5087025;28;20023;-68
2021/05/23 09:49:56;;;;;;;6.93;1.30;;;;;;;;;;5085587;28;20546;-74
2021/05/23 09:52:36;;;;;;;8.70;1.83;;;;;;;;;;5084172;28;20051;-69
2021/05/23 09:55:04;;;;;;;3.08;1.17;;;;;;;;;;5079699;28;20043;-71
2021/05/23 09:57:30;;;;;;;5.55;1.30;;;;;;;;;;5086356;28;20029;-68
2021/05/23 09:59:59;;;;;;;7.45;1.65;;;;;;;;;;5084245;28;20074;-68
2021/05/23 10:02:25;;;;;;;9.50;1.58;;;;;;;;;;5059783;28;20036;-70
2021/05/23 10:04:51;;;;;;;9.27;1.75;;;;;;;;;;5077487;28;20107;-74
2021/05/23 10:07:17;;;;;;;6.97;1.35;;;;;;;;;;5083249;28;20036;-74
2021/05/23 10:09:43;;;;;;;8.23;1.42;;;;;;;;;;5079524;28;20039;-73
2021/05/23 10:12:14;;;;;;;15.65;2.15;;;;;;;;;;5082847;28;20027;-72
2021/05/23 10:14:40;;;;;;;6.60;1.60;;;;;;;;;;5065621;28;20376;-69
2021/05/23 10:17:07;;;;;;;6.25;1.50;;;;;;;;;;5067752;28;20521;-71
2021/05/23 10:19:34;;;;;;;4.22;1.30;;;;;;;;;;5064804;28;20036;-72
2021/05/23 10:22:02;;;;;;;8.82;1.65;;;;;;;;;;5079533;28;20059;-71
2021/05/23 10:24:36;;;;;;;12.32;2.08;;;;;;;;;;5059811;28;20036;-73
2021/05/23 10:27:08;;;;;;;5.35;1.63;;;;;;;;;;5083302;28;20017;-69
2021/05/23 10:29:35;;;;;;;9.93;1.90;;;;;;;;;;5079922;28;20055;-68
2021/05/23 10:32:05;;;;;;;10.48;2.30;;;;;;;;;;5063934;28;20028;-70
2021/05/23 10:34:38;;;;;;;14.07;3.42;;;;;;;;;;5075145;28;20035;-71
2021/05/23 10:37:04;;;;;;;11.27;2.88;;;;;;;;;;5062608;28;20043;-72
2021/05/23 10:39:38;;;;;;;11.63;2.20;;;;;;;;;;5080847;28;20052;-70
2021/05/23 10:42:05;;;;;;;9.75;2.03;;;;;;;;;;5088142;28;20093;-71
2021/05/23 10:44:41;;;;;;;18.42;3.20;;;;;;;;;;5078279;28;20347;-69
2021/05/23 10:47:11;;;;;;;13.27;2.58;;;;;;;;;;5080310;28;20020;-74
2021/05/23 10:49:40;;;;;;;14.95;2.47;;;;;;;;;;5081985;28;20507;-71
2021/05/23 10:52:15;;;;;;;11.40;2.40;;;;;;;;;;5083043;28;20066;-70
2021/05/23 10:54:45;;;;;;;8.75;1.77;;;;;;;;;;5077640;28;20561;-73
2021/05/23 10:57:11;;;;;;;11.65;2.42;;;;;;;;;;5078127;28;20097;-70
2021/05/23 10:59:37;;;;;;;9.00;2.10;;;;;;;;;;5083109;28;20066;-73
2021/05/23 11:02:03;;;;;;;9.07;2.10;;;;;;;;;;5079326;28;20032;-71
2021/05/23 11:04:39;;;;;;;12.73;2.58;;;;;;;;;;5081015;28;20127;-73
2021/05/23 11:07:12;;;;;;;7.05;1.88;;;;;;;;;;5080524;28;20117;-72
2021/05/23 11:09:41;;;;;;;9.23;1.90;;;;;;;;;;5064437;28;20055;-71
2021/05/23 11:12:07;;;;;;;9.75;2.15;;;;;;;;;;5084809;28;20600;-71
2021/05/23 11:14:33;;;;;;;8.70;1.92;;;;;;;;;;5080963;28;20078;-70
2021/05/23 11:17:00;;;;;;;5.55;2.70;;;;;;;;;;5080488;28;20605;-72
2021/05/23 11:19:27;;;;;;;16.02;2.45;;;;;;;;;;5062628;28;20028;-69
2021/05/23 11:21:54;;;;;;;13.35;3.22;;;;;;;;;;5081427;28;20035;-72
2021/05/23 11:24:27;;;;;;;6.43;1.55;;;;;;;;;;5061485;28;20715;-70
2021/05/23 11:26:53;;;;;;;12.38;2.05;;;;;;;;;;5079447;28;20028;-71
2021/05/23 11:29:20;;;;;;;11.57;1.88;;;;;;;;;;5079373;28;20024;-71
2021/05/23 11:31:49;;;;;;;7.90;1.77;;;;;;;;;;5079801;28;20016;-68
2021/05/23 11:34:18;;;;;;;8.75;1.75;;;;;;;;;;5077309;28;20040;-71
2021/05/23 11:36:45;;;;;;;10.93;1.80;;;;;;;;;;5082873;28;20028;-72
2021/05/23 11:39:12;;;;;;;8.30;1.88;;;;;;;;;;5079291;28;20062;-71
2021/05/23 11:41:39;;;;;;;12.02;1.80;;;;;;;;;;5076764;28;20036;-72
2021/05/23 11:44:07;;;;;;;11.38;2.30;;;;;;;;;;5076801;28;20457;-71
2021/05/23 11:46:33;;;;;;;9.30;1.60;;;;;;;;;;5082077;28;20091;-71
2021/05/23 11:48:59;;;;;;;8.10;2.10;;;;;;;;;;5081620;28;20020;-73
2021/05/23 11:51:29;;;;;;;8.75;1.52;;;;;;;;;;5082511;28;20052;-71
2021/05/23 11:53:59;;;;;;;12.32;1.70;;;;;;;;;;5078258;28;20037;-71
2021/05/23 11:56:27;;;;;;;5.38;1.88;;;;;;;;;;5079100;28;20120;-71
2021/05/23 11:58:56;;;;;;;7.95;1.70;;;;;;;;;;5087671;28;20043;-72
2021/05/23 12:01:27;;;;;;;9.02;2.30;;;;;;;;;;5070948;28;20028;-72
2021/05/23 12:03:54;;;;;;;9.87;1.80;;;;;;;;;;5085599;28;20430;-72
2021/05/23 12:06:20;;;;;;;5.78;1.67;;;;;;;;;;5087415;28;21096;-74
2021/05/23 12:08:47;;;;;;;8.85;2.10;;;;;;;;;;5086838;28;20123;-72
2021/05/23 12:11:13;;;;;;;8.73;1.85;;;;;;;;;;5086836;28;20055;-72
2021/05/23 12:13:49;;;;;;;10.55;2.08;;;;;;;;;;5065544;28;20130;-71
2021/05/23 12:16:16;;;;;;;9.40;1.85;;;;;;;;;;5085548;28;20062;-72
2021/05/23 12:18:43;;;;;;;7.63;1.60;;;;;;;;;;5086581;28;20034;-72
2021/05/23 12:21:11;;;;;;;11.60;2.40;;;;;;;;;;5086212;28;20575;-73
2021/05/23 12:23:38;;;;;;;15.15;2.30;;;;;;;;;;5081596;28;20027;-72
2021/05/23 12:26:08;;;;;;;12.43;2.65;;;;;;;;;;5084051;28;20020;-73
2021/05/23 12:28:35;;;;;;;7.15;2.00;;;;;;;;;;5079815;28;20024;-72
2021/05/23 12:31:04;;;;;;;11.68;1.63;;;;;;;;;;5082967;28;20403;-72
2021/05/23 12:33:30;;;;;;;8.70;1.77;;;;;;;;;;5077892;28;20541;-71
2021/05/23 12:36:04;;;;;;;7.18;2.00;;;;;;;;;;5082914;28;20350;-72
2021/05/23 12:38:30;;;;;;;7.93;1.83;;;;;;;;;;5082138;28;20028;-72
2021/05/23 12:40:58;;;;;;;10.80;1.92;;;;;;;;;;5084682;28;20036;-72
2021/05/23 12:43:25;;;;;;;9.85;2.05;;;;;;;;;;5078372;28;20494;-72
2021/05/23 12:45:51;;;;;;;8.52;1.65;;;;;;;;;;5081480;28;20015;-71
2021/05/23 12:48:18;;;;;;;8.73;1.85;;;;;;;;;;5084241;28;20028;-71
2021/05/23 12:50:46;;;;;;;9.20;2.05;;;;;;;;;;5084121;28;20159;-72
2021/05/23 12:53:29;;;;;;;7.25;1.65;;;;;;;;;;5080069;28;20036;-71
2021/05/23 12:55:56;;;;;;;13.98;1.27;;;;;;;;;;5084125;28;20012;-71
2021/05/23 12:58:23;;;;;;;13.45;1.75;;;;;;;;;;5079233;28;20044;-73
2021/05/23 13:00:51;;;;;;;9.23;1.30;;;;;;;;;;5083324;28;20066;-72
2021/05/23 13:03:18;;;;;;;10.25;2.33;;;;;;;;;;5082483;28;20047;-72
2021/05/23 13:06:00;;;;;;;11.20;1.67;;;;;;;;;;5079458;28;20019;-72
2021/05/23 13:08:26;;;;;;;;;;;;;;;;;;5064120;28;20032;-73
2021/05/23 13:10:52;;;;;;;9.48;1.75;;;;;;;;;;5066532;28;20009;-72
2021/05/23 13:13:18;;;;;;;10.27;2.08;;;;;;;;;;5084545;28;20024;-72
2021/05/23 13:15:44;;;;;;;8.73;1.40;;;;;;;;;;5084356;28;20248;-75
2021/05/23 13:18:10;;;;;;;9.43;1.83;;;;;;;;;;5087496;28;20031;-69
2021/05/23 13:20:37;;;;;;;7.88;1.75;;;;;;;;;;5082771;28;20040;-72
2021/05/23 13:23:04;;;;;;;7.75;1.73;;;;;;;;;;5066507;28;20035;-72
2021/05/23 13:25:31;;;;;;;9.18;1.67;;;;;;;;;;5064624;28;20392;-72
2021/05/23 13:27:57;;;;;;;10.68;1.40;;;;;;;;;;5085143;28;20044;-72
2021/05/23 13:30:25;;;;;;;9.60;1.85;;;;;;;;;;5080921;28;20019;-72
2021/05/23 13:32:52;;;;;;;9.35;1.40;;;;;;;;;;5063849;28;20378;-71
2021/05/23 13:35:18;;;;;;;6.35;1.40;;;;;;;;;;5079081;28;20016;-73
2021/05/23 13:37:44;;;;;;;8.07;1.40;;;;;;;;;;5084061;28;20057;-73
2021/05/23 13:40:10;;;;;;;5.75;1.52;;;;;;;;;;5059900;28;20027;-72
2021/05/23 13:42:36;;;;;;;4.78;1.40;;;;;;;;;;5079572;28;20132;-73
2021/05/23 13:45:03;;;;;;;7.32;1.10;;;;;;;;;;5080769;28;20025;-73
2021/05/23 13:47:29;;;;;;;8.25;1.27;;;;;;;;;;5063337;28;20020;-75
2021/05/23 13:49:55;;;;;;;8.13;1.65;;;;;;;;;;5076655;28;20025;-73
2021/05/23 13:52:21;;;;;;;7.95;1.38;;;;;;;;;;5072401;28;20039;-73
2021/05/23 13:54:48;;;;;;;9.48;1.42;;;;;;;;;;5074128;28;20082;-73
2021/05/23 13:57:14;;;;;;;8.30;1.73;;;;;;;;;;5086650;28;20185;-73
2021/05/23 13:59:40;;;;;;;8.93;1.50;;;;;;;;;;5082236;28;20029;-75
2021/05/23 14:02:06;;;;;;;6.18;1.48;;;;;;;;;;5077877;28;20020;-72
2021/05/23 14:04:32;;;;;;;6.90;1.48;;;;;;;;;;5076696;28;20099;-72
2021/05/23 14:06:58;;;;;;;8.80;1.67;;;;;;;;;;5082172;28;20040;-72
2021/05/23 14:09:24;;;;;;;5.93;1.63;;;;;;;;;;5087286;28;20025;-73
2021/05/23 14:11:50;;;;;;;8.80;1.38;;;;;;;;;;5066033;28;20491;-72
2021/05/23 14:14:17;;;;;;;5.55;1.38;;;;;;;;;;5086289;28;20031;-72
2021/05/23 14:16:43;;;;;;;11.35;1.88;;;;;;;;;;5082036;28;20089;-72
2021/05/23 14:19:09;;;;;;;10.27;1.92;;;;;;;;;;5086708;28;20039;-72
2021/05/23 14:21:36;;;;;;;6.00;1.40;;;;;;;;;;5089841;28;20036;-73
2021/05/23 14:24:02;;;;;;;5.25;1.38;;;;;;;;;;5086305;28;20099;-73
2021/05/23 14:26:28;;;;;;;6.07;1.13;;;;;;;;;;5088909;28;20031;-74
2021/05/23 14:28:56;;;;;;;2.80;1.00;;;;;;;;;;5089285;28;20020;-74
2021/05/23 14:31:22;;;;;;;2.65;1.00;;;;;;;;;;5086546;28;20020;-74